Time;durP1;ratioP1;P1;durP2;ratioP2;P2;SDS_P1;SDS_P2;PMS_P1;PMS_P2;Temp;Humidity;BMP_temperature;BMP_pressure;BME280_temperature;BME280_humidity;BME280_pressure;Samples;Min_cycle;Max_cycle;Signal;HPM_P1;HPM_P2
2021/06/06 00:00:39;;;;;;;5.20;3.90;;;14.20;99.90;;;;;;5024618;28;20493;-55
2021/06/06 00:03:11;;;;;;;5.77;4.73;;;14.20;99.90;;;;;;5010167;28;20458;-56
2021/06/06 00:05:55;;;;;;;5.47;4.67;;;14.20;99.90;;;;;;5022917;28;20450;-55
2021/06/06 00:08:22;;;;;;;4.87;4.27;;;14.20;99.90;;;;;;5028808;28;20489;-55
2021/06/06 00:10:49;;;;;;;5.03;4.20;;;14.20;99.90;;;;;;5026093;28;20431;-56
2021/06/06 00:13:17;;;;;;;6.03;5.20;;;14.20;99.90;;;;;;5009324;28;20509;-55
2021/06/06 00:15:43;;;;;;;5.70;4.57;;;14.20;99.90;;;;;;5026576;28;20468;-55
2021/06/06 00:18:09;;;;;;;8.00;5.40;;;14.20;99.90;;;;;;5028202;28;20420;-56
2021/06/06 00:20:37;;;;;;;7.83;4.73;;;14.20;99.90;;;;;;5020164;28;20435;-54
2021/06/06 00:23:04;;;;;;;8.87;5.03;;;14.30;99.90;;;;;;5028410;28;20179;-56
2021/06/06 00:25:30;;;;;;;6.90;5.20;;;14.30;99.90;;;;;;5024378;28;20462;-55
2021/06/06 00:27:55;;;;;;;6.87;4.60;;;14.20;99.90;;;;;;5009198;28;20588;-55
2021/06/06 00:30:22;;;;;;;7.03;5.00;;;14.20;99.90;;;;;;5013513;28;20454;-56
2021/06/06 00:32:48;;;;;;;6.03;4.50;;;14.20;99.90;;;;;;5026105;28;20180;-55
2021/06/06 00:35:14;;;;;;;7.70;4.53;;;14.20;99.90;;;;;;5008728;28;20511;-55
2021/06/06 00:37:41;;;;;;;7.27;5.30;;;14.30;99.90;;;;;;5019163;28;20435;-55
2021/06/06 00:40:08;;;;;;;5.70;4.87;;;14.30;99.90;;;;;;5026681;28;20548;-56
2021/06/06 00:42:34;;;;;;;5.33;4.47;;;14.30;99.90;;;;;;5025926;28;20446;-55
2021/06/06 00:45:00;;;;;;;6.13;5.10;;;14.20;99.90;;;;;;5026066;28;20433;-55
2021/06/06 00:47:29;;;;;;;6.53;4.90;;;14.20;99.90;;;;;;5026896;28;20184;-55
2021/06/06 00:49:55;;;;;;;7.47;4.97;;;14.20;99.90;;;;;;5023784;28;20571;-56
2021/06/06 00:52:22;;;;;;;7.10;5.00;;;14.20;99.90;;;;;;5025389;28;20461;-55
2021/06/06 00:54:49;;;;;;;8.80;5.40;;;14.20;99.90;;;;;;5024001;28;20451;-56
2021/06/06 00:57:26;;;;;;;7.90;5.57;;;14.20;99.90;;;;;;5023937;28;20434;-56
2021/06/06 01:00:16;;;;;;;10.23;5.20;;;14.20;99.90;;;;;;5008836;28;20481;-56
2021/06/06 01:02:42;;;;;;;7.47;5.07;;;14.20;99.90;;;;;;5023897;28;20469;-56
2021/06/06 01:05:17;;;;;;;7.97;5.60;;;14.20;99.90;;;;;;5019838;28;20996;-55
2021/06/06 01:07:42;;;;;;;7.77;5.87;;;14.20;99.90;;;;;;5025482;28;20456;-56
2021/06/06 01:10:09;;;;;;;8.57;5.67;;;14.20;99.90;;;;;;5009209;28;20772;-56
2021/06/06 01:12:42;;;;;;;9.53;6.40;;;14.20;99.90;;;;;;5008622;28;20190;-55
2021/06/06 01:15:20;;;;;;;9.67;6.53;;;14.20;99.90;;;;;;5026564;28;20417;-55
2021/06/06 01:18:07;;;;;;;9.33;5.93;;;14.20;99.90;;;;;;5026647;28;20411;-55
2021/06/06 01:20:46;;;;;;;7.33;5.40;;;14.10;99.90;;;;;;5022742;28;20921;-55
2021/06/06 01:23:40;;;;;;;8.00;5.77;;;14.10;99.90;;;;;;5021159;28;20407;-55
2021/06/06 01:26:12;;;;;;;8.40;6.13;;;14.10;99.90;;;;;;5008041;28;20515;-55
2021/06/06 01:28:54;;;;;;;10.50;6.10;;;14.10;99.90;;;;;;5025760;28;20473;-57
2021/06/06 01:31:22;;;;;;;10.30;6.43;;;14.20;99.90;;;;;;5024156;28;20525;-55
2021/06/06 01:34:02;;;;;;;7.83;5.90;;;14.20;99.90;;;;;;5010462;28;20426;-55
2021/06/06 01:36:42;;;;;;;8.30;5.80;;;14.20;99.90;;;;;;5026951;28;20848;-56
2021/06/06 01:39:23;;;;;;;8.90;6.33;;;14.10;99.90;;;;;;5024341;28;20500;-56
2021/06/06 01:41:54;;;;;;;9.37;6.73;;;14.20;99.90;;;;;;5023036;28;20433;-56
2021/06/06 01:44:23;;;;;;;7.83;6.13;;;14.10;99.90;;;;;;5009596;28;20429;-55
2021/06/06 01:47:07;;;;;;;7.30;6.40;;;14.10;99.90;;;;;;5004016;28;20553;-56
2021/06/06 01:49:39;;;;;;;9.40;6.80;;;14.20;99.90;;;;;;5022650;28;20496;-55
2021/06/06 01:52:09;;;;;;;10.97;7.30;;;14.10;99.90;;;;;;5021747;28;20431;-56
2021/06/06 01:54:40;;;;;;;8.80;6.97;;;14.10;99.90;;;;;;5027756;28;20498;-55
2021/06/06 01:57:10;;;;;;;11.57;8.10;;;14.10;99.90;;;;;;5023576;28;20528;-56
2021/06/06 01:59:43;;;;;;;13.10;8.20;;;14.10;99.90;;;;;;5019572;28;20535;-54
2021/06/06 02:02:11;;;;;;;9.07;7.00;;;14.10;99.90;;;;;;5008314;28;20753;-56
2021/06/06 02:04:38;;;;;;;7.97;6.30;;;14.10;99.90;;;;;;5022839;28;20458;-56
2021/06/06 02:07:24;;;;;;;10.33;7.23;;;14.10;99.90;;;;;;5026038;28;20456;-54
2021/06/06 02:10:19;;;;;;;10.93;7.47;;;14.10;99.90;;;;;;5008215;28;20446;-56
2021/06/06 02:12:53;;;;;;;9.37;7.27;;;14.10;99.90;;;;;;5024823;28;20854;-57
2021/06/06 02:15:26;;;;;;;9.93;7.40;;;14.10;99.90;;;;;;5029409;28;20442;-56
2021/06/06 02:17:53;;;;;;;8.80;6.70;;;14.10;99.90;;;;;;5030126;28;20431;-55
2021/06/06 02:20:22;;;;;;;8.60;6.97;;;14.10;99.90;;;;;;5023186;28;20494;-56
2021/06/06 02:22:48;;;;;;;9.87;6.70;;;14.10;99.90;;;;;;5018116;28;20438;-55
2021/06/06 02:25:15;;;;;;;10.70;6.90;;;14.10;99.90;;;;;;5028216;28;20465;-56
2021/06/06 02:28:05;;;;;;;9.80;6.97;;;14.10;99.90;;;;;;5028387;28;20787;-55
2021/06/06 02:30:41;;;;;;;12.57;7.33;;;14.10;99.90;;;;;;5028083;28;20431;-54
2021/06/06 02:33:21;;;;;;;9.93;6.77;;;14.10;99.90;;;;;;5024905;28;20445;-54
2021/06/06 02:36:00;;;;;;;13.13;6.93;;;14.10;99.90;;;;;;5024986;28;20483;-55
2021/06/06 02:38:38;;;;;;;11.30;8.33;;;14.10;99.90;;;;;;5009973;28;20462;-56
2021/06/06 02:41:21;;;;;;;11.57;6.93;;;14.10;99.90;;;;;;5026778;28;20466;-56
2021/06/06 02:44:16;;;;;;;11.70;7.43;;;14.10;99.90;;;;;;5029816;28;20427;-56
2021/06/06 02:46:44;;;;;;;9.63;7.60;;;14.10;99.90;;;;;;5023599;28;20965;-56
2021/06/06 02:49:16;;;;;;;9.77;6.90;;;14.10;99.90;;;;;;5034606;28;20541;-56
2021/06/06 02:51:54;;;;;;;12.10;7.70;;;14.10;99.90;;;;;;5025552;28;20517;-57
2021/06/06 02:54:45;;;;;;;13.07;8.83;;;14.10;99.90;;;;;;5022527;28;20454;-56
2021/06/06 02:57:14;;;;;;;10.90;8.07;;;14.10;99.90;;;;;;5027020;28;20440;-55
2021/06/06 02:59:58;;;;;;;7.67;6.03;;;14.10;99.90;;;;;;5026545;23;20497;-60
2021/06/06 03:02:38;;;;;;;7.87;5.90;;;14.10;99.90;;;;;;5019239;28;20430;-60
2021/06/06 03:05:08;;;;;;;10.17;7.10;;;14.10;99.90;;;;;;5018301;28;20431;-59
2021/06/06 03:07:39;;;;;;;8.73;5.87;;;14.10;99.90;;;;;;5011336;28;20522;-59
2021/06/06 03:10:07;;;;;;;10.07;7.27;;;14.00;99.90;;;;;;5028224;28;20994;-59
2021/06/06 03:12:34;;;;;;;5.80;4.67;;;14.00;99.90;;;;;;5036736;28;20434;-60
2021/06/06 03:15:02;;;;;;;8.53;5.60;;;14.00;99.90;;;;;;5044572;28;20463;-60
2021/06/06 03:17:34;;;;;;;6.20;4.47;;;14.00;99.90;;;;;;5029841;28;20501;-60
2021/06/06 03:20:05;;;;;;;5.50;4.10;;;14.00;99.90;;;;;;5035654;28;20938;-60
2021/06/06 03:22:34;;;;;;;6.63;3.40;;;14.00;99.90;;;;;;5034636;28;20449;-60
2021/06/06 03:25:09;;;;;;;5.33;4.23;;;14.00;99.90;;;;;;5044277;28;20497;-60
2021/06/06 03:27:39;;;;;;;5.33;3.93;;;14.00;99.90;;;;;;5049865;28;20401;-60
2021/06/06 03:30:11;;;;;;;4.90;4.30;;;14.00;99.90;;;;;;5046159;28;20460;-60
2021/06/06 03:32:40;;;;;;;3.83;3.53;;;14.00;99.90;;;;;;5036150;28;20836;-60
2021/06/06 03:35:09;;;;;;;4.03;3.43;;;14.00;99.90;;;;;;5035807;28;20432;-59
2021/06/06 03:37:35;;;;;;;4.73;4.07;;;14.00;99.90;;;;;;5042572;28;20417;-60
2021/06/06 03:40:01;;;;;;;5.40;4.17;;;14.00;99.90;;;;;;5039536;28;20441;-59
2021/06/06 03:42:27;;;;;;;5.20;3.73;;;14.00;99.90;;;;;;5032877;28;20236;-60
2021/06/06 03:44:52;;;;;;;4.93;3.83;;;14.00;99.90;;;;;;5029352;28;20502;-59
2021/06/06 03:47:19;;;;;;;4.33;3.93;;;14.00;99.90;;;;;;5048498;28;20908;-59
2021/06/06 03:49:45;;;;;;;3.47;3.17;;;14.00;99.90;;;;;;5040110;28;20715;-58
2021/06/06 03:52:11;;;;;;;5.50;4.30;;;14.00;99.90;;;;;;5044606;28;20524;-59
2021/06/06 03:54:36;;;;;;;4.87;4.40;;;14.00;99.90;;;;;;5020628;28;20410;-59
2021/06/06 03:57:03;;;;;;;4.70;4.07;;;14.00;99.90;;;;;;5042748;28;20516;-59
2021/06/06 03:59:29;;;;;;;5.93;4.07;;;14.00;99.90;;;;;;5020810;28;80134;-58
2021/06/06 04:01:55;;;;;;;6.57;3.70;;;14.00;99.90;;;;;;5030884;28;20842;-60
2021/06/06 04:04:21;;;;;;;4.50;3.80;;;14.00;99.90;;;;;;5023896;28;20644;-60
2021/06/06 04:06:47;;;;;;;5.70;4.27;;;14.00;99.90;;;;;;5049179;28;20527;-59
2021/06/06 04:09:14;;;;;;;4.23;3.60;;;14.00;99.90;;;;;;5044573;28;20462;-59
2021/06/06 04:11:40;;;;;;;4.53;3.90;;;14.00;99.90;;;;;;5037501;28;20465;-60
2021/06/06 04:14:06;;;;;;;11.13;3.80;;;14.00;99.90;;;;;;5039826;28;20530;-60
2021/06/06 04:16:33;;;;;;;5.77;4.23;;;14.00;99.90;;;;;;5038823;28;20430;-59
2021/06/06 04:18:58;;;;;;;3.83;3.43;;;14.00;99.90;;;;;;5012755;28;20442;-60
2021/06/06 04:21:29;;;;;;;4.60;4.03;;;14.00;99.90;;;;;;5043289;28;20429;-61
2021/06/06 04:23:55;;;;;;;4.83;3.73;;;14.00;99.90;;;;;;5043281;28;20179;-60
2021/06/06 04:26:21;;;;;;;5.33;4.37;;;14.00;99.90;;;;;;5049955;28;20496;-60
2021/06/06 04:28:47;;;;;;;5.23;3.70;;;14.00;99.90;;;;;;5056500;28;20432;-59
2021/06/06 04:31:15;;;;;;;5.77;4.30;;;14.00;99.90;;;;;;5039854;28;20441;-59
2021/06/06 04:33:40;;;;;;;5.67;4.60;;;14.10;99.90;;;;;;5047874;28;20453;-59
2021/06/06 04:36:07;;;;;;;12.13;4.00;;;14.10;99.90;;;;;;5047917;28;20491;-59
2021/06/06 04:38:33;;;;;;;7.27;4.20;;;14.10;99.90;;;;;;5049983;28;20167;-59
2021/06/06 04:41:02;;;;;;;4.70;4.07;;;14.10;99.90;;;;;;5040956;28;20434;-60
2021/06/06 04:43:28;;;;;;;5.30;4.13;;;14.10;99.90;;;;;;5048106;28;20418;-59
2021/06/06 04:45:54;;;;;;;6.23;3.57;;;14.10;99.90;;;;;;5049988;28;20445;-60
2021/06/06 04:48:28;;;;;;;9.23;4.50;;;14.10;99.90;;;;;;5049297;28;20655;-59
2021/06/06 04:50:59;;;;;;;5.33;4.00;;;14.10;99.90;;;;;;5046602;28;20511;-59
2021/06/06 04:53:25;;;;;;;4.93;4.07;;;14.10;99.90;;;;;;5029753;28;20426;-58
2021/06/06 04:55:55;;;;;;;5.57;4.17;;;14.20;99.90;;;;;;5034482;28;20423;-60
2021/06/06 04:58:22;;;;;;;7.77;4.00;;;14.20;99.90;;;;;;5044444;28;20418;-59
2021/06/06 05:00:48;;;;;;;4.70;4.07;;;14.20;99.90;;;;;;5034470;28;20541;-60
2021/06/06 05:03:15;;;;;;;4.87;4.23;;;14.20;99.90;;;;;;5026306;28;20444;-59
2021/06/06 05:05:42;;;;;;;4.10;3.47;;;14.30;99.90;;;;;;5044599;28;20291;-59
2021/06/06 05:08:11;;;;;;;5.03;3.93;;;14.30;99.90;;;;;;5048569;28;20483;-59
2021/06/06 05:10:39;;;;;;;6.30;4.00;;;14.20;99.90;;;;;;5025794;28;20541;-59
2021/06/06 05:13:06;;;;;;;4.73;3.50;;;14.30;99.90;;;;;;5034613;28;20491;-60
2021/06/06 05:15:32;;;;;;;4.00;3.60;;;14.30;99.90;;;;;;5047866;28;20429;-59
2021/06/06 05:17:58;;;;;;;4.13;3.73;;;14.30;99.90;;;;;;5031226;28;20470;-60
2021/06/06 05:20:31;;;;;;;6.37;4.37;;;14.30;99.90;;;;;;5034414;28;20528;-59
2021/06/06 05:22:58;;;;;;;6.17;4.40;;;14.30;99.90;;;;;;5033533;28;20425;-59
2021/06/06 05:25:23;;;;;;;6.97;4.30;;;14.20;99.90;;;;;;5042780;28;20556;-59
2021/06/06 05:27:49;;;;;;;6.30;4.27;;;14.30;99.90;;;;;;5038545;28;20863;-59
2021/06/06 05:30:23;;;;;;;4.97;4.20;;;14.30;99.90;;;;;;5031422;28;20558;-59
2021/06/06 05:32:50;;;;;;;5.90;3.60;;;14.20;99.90;;;;;;5044725;28;20167;-59
2021/06/06 05:35:17;;;;;;;4.50;2.97;;;14.30;99.90;;;;;;5042021;28;20491;-59
2021/06/06 05:37:43;;;;;;;3.50;3.07;;;14.30;99.90;;;;;;5028536;28;20798;-60
2021/06/06 05:40:11;;;;;;;3.57;3.23;;;14.20;99.90;;;;;;5029102;28;20449;-59
2021/06/06 05:42:36;;;;;;;3.00;2.70;;;14.30;99.90;;;;;;5047356;28;20167;-59
2021/06/06 05:45:03;;;;;;;7.13;3.57;;;14.30;99.90;;;;;;5048441;28;20470;-59
2021/06/06 05:47:29;;;;;;;4.13;3.40;;;14.30;99.90;;;;;;5046455;28;20175;-60
2021/06/06 05:49:55;;;;;;;6.50;3.10;;;14.30;99.90;;;;;;5052265;28;20438;-58
2021/06/06 05:52:20;;;;;;;3.83;3.30;;;14.30;99.90;;;;;;5041272;28;20433;-59
2021/06/06 05:54:46;;;;;;;4.80;3.50;;;14.30;99.90;;;;;;5049659;28;20535;-63
2021/06/06 05:57:12;;;;;;;3.97;3.17;;;14.30;99.90;;;;;;5043361;28;20176;-60
2021/06/06 05:59:37;;;;;;;4.13;3.40;;;14.30;99.90;;;;;;5028405;28;20303;-59
2021/06/06 06:02:03;;;;;;;8.13;3.67;;;14.30;99.90;;;;;;5030767;28;20337;-60
2021/06/06 06:04:29;;;;;;;4.73;3.23;;;14.30;99.90;;;;;;5021917;28;20186;-59
2021/06/06 06:06:55;;;;;;;3.73;3.23;;;14.30;99.90;;;;;;5041991;28;20742;-60
2021/06/06 06:09:20;;;;;;;4.10;3.33;;;14.30;99.90;;;;;;5040733;28;20234;-59
2021/06/06 06:11:46;;;;;;;2.97;2.77;;;14.30;99.90;;;;;;5047543;28;20355;-60
2021/06/06 06:14:11;;;;;;;3.00;2.80;;;14.30;99.90;;;;;;5021925;28;20259;-59
2021/06/06 06:16:38;;;;;;;3.57;3.13;;;14.30;99.90;;;;;;5045951;28;20313;-60
2021/06/06 06:19:08;;;;;;;3.30;3.00;;;14.40;99.90;;;;;;5044475;28;20199;-59
2021/06/06 06:21:35;;;;;;;3.70;2.50;;;14.40;99.90;;;;;;5043248;28;20785;-60
2021/06/06 06:24:01;;;;;;;3.10;2.40;;;14.40;99.90;;;;;;5031589;28;20430;-59
2021/06/06 06:26:28;;;;;;;2.53;2.30;;;14.30;99.90;;;;;;5039710;28;20899;-61
2021/06/06 06:28:55;;;;;;;2.27;2.10;;;14.40;99.90;;;;;;5044948;28;20433;-59
2021/06/06 06:31:21;;;;;;;3.30;2.50;;;14.40;99.90;;;;;;5023599;28;20421;-59
2021/06/06 06:33:47;;;;;;;3.10;2.23;;;14.50;99.90;;;;;;5044056;28;20433;-54
2021/06/06 06:36:16;;;;;;;2.77;2.37;;;14.50;99.90;;;;;;5039623;28;20531;-55
2021/06/06 06:38:42;;;;;;;2.50;2.30;;;14.50;99.90;;;;;;5021920;28;20422;-56
2021/06/06 06:41:08;;;;;;;2.23;2.10;;;14.60;99.90;;;;;;5038448;28;20422;-55
2021/06/06 06:43:34;;;;;;;2.40;2.20;;;14.60;99.90;;;;;;5047814;28;20767;-56
2021/06/06 06:45:59;;;;;;;2.27;2.07;;;14.70;99.90;;;;;;5045796;28;20204;-58
2021/06/06 06:48:27;;;;;;;2.37;2.17;;;14.70;99.90;;;;;;5043310;28;20772;-59
2021/06/06 06:50:55;;;;;;;2.20;2.07;;;14.70;99.90;;;;;;5026042;28;20676;-59
2021/06/06 06:53:22;;;;;;;2.20;2.00;;;14.70;99.90;;;;;;5041859;28;20417;-59
2021/06/06 06:55:48;;;;;;;2.13;1.93;;;14.70;99.90;;;;;;5023072;28;20421;-61
2021/06/06 06:58:14;;;;;;;2.17;2.00;;;14.70;99.90;;;;;;5047602;28;20430;-60
2021/06/06 07:00:43;;;;;;;1.97;1.87;;;14.70;99.90;;;;;;5043361;28;20518;-60
2021/06/06 07:03:13;;;;;;;3.63;1.70;;;14.80;99.90;;;;;;5025251;28;20492;-59
2021/06/06 07:05:40;;;;;;;1.80;1.70;;;14.70;99.90;;;;;;5043709;28;20544;-61
2021/06/06 07:08:11;;;;;;;1.70;1.60;;;14.80;99.90;;;;;;5045482;28;20422;-60
2021/06/06 07:10:41;;;;;;;1.57;1.47;;;14.70;99.90;;;;;;5046830;28;20471;-60
2021/06/06 07:13:08;;;;;;;1.60;1.50;;;14.70;99.90;;;;;;5043731;28;20941;-59
2021/06/06 07:15:34;;;;;;;1.93;1.83;;;14.80;99.90;;;;;;5043029;28;20943;-58
2021/06/06 07:18:01;;;;;;;2.00;1.90;;;14.80;99.90;;;;;;5038834;28;20484;-60
2021/06/06 07:20:30;;;;;;;2.33;1.70;;;14.80;99.90;;;;;;5041291;28;20704;-60
2021/06/06 07:22:57;;;;;;;2.53;1.40;;;14.90;99.90;;;;;;5042906;28;20417;-59
2021/06/06 07:25:24;;;;;;;1.70;1.60;;;14.80;99.90;;;;;;5048656;28;20425;-59
2021/06/06 07:27:51;;;;;;;2.13;1.30;;;14.80;99.90;;;;;;5042873;28;20866;-60
2021/06/06 07:30:24;;;;;;;2.27;1.97;;;14.90;99.90;;;;;;5022595;28;20445;-61
2021/06/06 07:32:51;;;;;;;1.90;1.80;;;14.90;99.90;;;;;;5040864;28;21059;-62
2021/06/06 07:35:18;;;;;;;2.93;2.40;;;14.90;99.90;;;;;;5038587;28;20445;-60
2021/06/06 07:37:44;;;;;;;2.40;2.20;;;15.00;99.90;;;;;;5040495;28;20475;-58
2021/06/06 07:40:12;;;;;;;2.17;1.97;;;15.00;99.90;;;;;;5040154;28;20454;-60
2021/06/06 07:42:37;;;;;;;2.10;1.80;;;15.10;99.90;;;;;;5046774;28;20180;-60
2021/06/06 07:45:05;;;;;;;2.97;1.70;;;15.20;99.90;;;;;;5026618;28;20426;-59
2021/06/06 07:47:31;;;;;;;2.10;1.90;;;15.10;99.90;;;;;;5047830;28;20713;-59
2021/06/06 07:49:56;;;;;;;2.97;2.17;;;15.10;99.90;;;;;;5038389;28;20445;-59
2021/06/06 07:52:23;;;;;;;4.60;2.40;;;15.10;99.90;;;;;;5037779;28;20172;-61
2021/06/06 07:54:48;;;;;;;2.80;2.57;;;15.20;99.90;;;;;;5042552;28;20167;-60
2021/06/06 07:57:14;;;;;;;2.40;2.20;;;15.20;99.90;;;;;;5026815;28;20854;-59
2021/06/06 07:59:40;;;;;;;5.80;2.70;;;15.20;99.90;;;;;;5043847;28;20737;-58
2021/06/06 08:02:05;;;;;;;2.53;2.33;;;15.20;99.90;;;;;;5041996;28;20176;-58
2021/06/06 08:04:31;;;;;;;3.73;2.07;;;15.30;99.90;;;;;;5037232;28;20194;-59
2021/06/06 08:06:57;;;;;;;2.43;2.23;;;15.30;99.90;;;;;;5043423;28;20203;-58
2021/06/06 08:09:23;;;;;;;4.67;3.80;;;15.30;99.90;;;;;;5040796;28;20194;-58
2021/06/06 08:11:49;;;;;;;2.47;2.27;;;15.20;99.90;;;;;;5038598;28;20441;-57
2021/06/06 08:14:15;;;;;;;2.70;2.50;;;15.20;99.90;;;;;;5044129;28;20387;-57
2021/06/06 08:16:41;;;;;;;2.63;2.43;;;15.20;99.90;;;;;;5040870;28;20901;-56
2021/06/06 08:19:07;;;;;;;2.50;2.30;;;15.20;99.90;;;;;;5039651;28;20221;-58
2021/06/06 08:21:41;;;;;;;3.43;1.83;;;15.20;99.90;;;;;;5046480;28;20572;-57
2021/06/06 08:24:08;;;;;;;2.30;2.07;;;15.30;99.90;;;;;;5043214;28;20500;-57
2021/06/06 08:26:33;;;;;;;2.80;1.60;;;15.50;99.90;;;;;;5045550;28;21103;-58
2021/06/06 08:28:59;;;;;;;1.57;1.47;;;15.50;99.90;;;;;;5039961;28;20549;-58
2021/06/06 08:31:28;;;;;;;1.50;1.40;;;15.60;99.90;;;;;;5025299;28;20660;-59
2021/06/06 08:33:55;;;;;;;1.67;1.57;;;15.70;99.90;;;;;;5041114;28;20437;-59
2021/06/06 08:36:25;;;;;;;2.00;1.70;;;15.70;99.90;;;;;;5045822;28;20798;-59
2021/06/06 08:38:52;;;;;;;3.70;2.07;;;15.80;99.90;;;;;;5022090;28;20796;-59
2021/06/06 08:41:23;;;;;;;1.60;1.50;;;15.90;99.90;;;;;;5037917;28;20984;-59
2021/06/06 08:43:56;;;;;;;1.40;1.30;;;15.90;99.90;;;;;;5036526;28;20448;-60
2021/06/06 08:46:24;;;;;;;2.17;1.60;;;16.00;99.90;;;;;;5056948;28;20477;-59
2021/06/06 08:48:50;;;;;;;1.80;1.70;;;16.00;99.90;;;;;;5064535;28;20414;-59
2021/06/06 08:51:39;;;;;;;1.43;1.33;;;16.00;99.90;;;;;;5049562;28;20413;-58
2021/06/06 08:54:22;;;;;;;1.50;1.40;;;16.00;99.90;;;;;;5069119;28;20417;-60
2021/06/06 08:56:54;;;;;;;1.33;1.23;;;16.00;99.90;;;;;;5066281;28;21000;-60
2021/06/06 08:59:52;;;;;;;1.30;1.20;;;16.00;99.90;;;;;;5054108;28;20513;-61
2021/06/06 09:02:20;;;;;;;1.23;1.00;;;16.00;99.90;;;;;;5036502;28;20524;-60
2021/06/06 09:04:47;;;;;;;5.03;1.20;;;16.00;99.90;;;;;;5040458;28;20429;-61
2021/06/06 09:07:36;;;;;;;1.50;1.40;;;15.90;99.90;;;;;;5041209;28;20479;-60
2021/06/06 09:10:14;;;;;;;1.07;1.07;;;15.90;99.90;;;;;;5040898;28;20538;-60
2021/06/06 09:12:40;;;;;;;2.40;1.20;;;15.90;99.90;;;;;;5022757;28;20433;-62
2021/06/06 09:15:09;;;;;;;1.07;1.00;;;15.80;99.90;;;;;;5022310;28;20671;-62
2021/06/06 09:17:34;;;;;;;1.33;1.23;;;15.80;99.90;;;;;;5035879;28;20434;-60
2021/06/06 09:20:01;;;;;;;1.20;1.20;;;15.70;99.90;;;;;;5040319;28;20997;-61
2021/06/06 09:22:32;;;;;;;1.20;1.10;;;15.60;99.90;;;;;;5020991;28;20679;-68
2021/06/06 09:25:12;;;;;;;1.40;1.30;;;15.60;99.90;;;;;;5035536;28;20434;-61
2021/06/06 09:27:39;;;;;;;1.30;1.20;;;15.60;99.90;;;;;;5036497;28;20511;-60
2021/06/06 09:30:11;;;;;;;2.03;1.13;;;15.60;99.90;;;;;;5030001;28;20454;-63
2021/06/06 09:32:37;;;;;;;1.67;1.30;;;15.70;99.90;;;;;;5039014;28;20475;-61
2021/06/06 09:35:27;;;;;;;1.37;1.27;;;15.70;99.90;;;;;;5020505;28;20430;-60
2021/06/06 09:38:12;;;;;;;1.43;1.10;;;15.60;99.90;;;;;;5034966;28;20186;-60
2021/06/06 09:40:46;;;;;;;1.10;1.00;;;15.70;99.90;;;;;;5018262;28;20441;-61
2021/06/06 09:43:42;;;;;;;2.80;1.70;;;15.70;99.90;;;;;;5022357;28;20469;-57
2021/06/06 09:46:17;;;;;;;1.00;1.00;;;15.70;99.90;;;;;;5012260;28;20628;-60
2021/06/06 09:48:44;;;;;;;1.30;1.20;;;15.70;99.90;;;;;;5037159;28;20430;-62
2021/06/06 09:51:17;;;;;;;1.03;1.03;;;15.70;99.90;;;;;;5017675;28;20430;-60
2021/06/06 09:53:44;;;;;;;0.90;0.90;;;15.60;99.90;;;;;;5036044;28;20433;-61
2021/06/06 09:56:22;;;;;;;0.90;0.90;;;15.60;99.90;;;;;;5033877;28;20437;-60
2021/06/06 09:58:49;;;;;;;1.30;1.10;;;15.70;99.90;;;;;;5016115;28;20777;-61
2021/06/06 10:01:32;;;;;;;1.00;1.00;;;15.70;99.90;;;;;;5032515;28;20486;-59
2021/06/06 10:03:59;;;;;;;1.30;1.20;;;15.70;99.90;;;;;;5036484;28;20974;-59
2021/06/06 10:06:33;;;;;;;1.60;1.17;;;15.80;99.90;;;;;;5019061;28;20450;-60
2021/06/06 10:09:27;;;;;;;1.10;1.10;;;15.70;99.90;;;;;;5035851;28;20531;-60
2021/06/06 10:11:55;;;;;;;1.00;0.90;;;15.70;99.90;;;;;;5039730;28;20584;-60
2021/06/06 10:14:37;;;;;;;1.27;1.17;;;15.80;99.90;;;;;;5037350;28;20430;-60
2021/06/06 10:17:11;;;;;;;1.33;1.10;;;15.80;99.90;;;;;;5040985;28;20504;-60
2021/06/06 10:19:43;;;;;;;1.30;1.00;;;15.70;99.90;;;;;;5037802;28;20446;-60
2021/06/06 10:22:22;;;;;;;1.30;1.10;;;15.60;99.90;;;;;;5035389;28;20434;-60
2021/06/06 10:24:57;;;;;;;1.07;1.00;;;15.70;99.90;;;;;;5029103;28;20427;-60
2021/06/06 10:27:32;;;;;;;2.33;1.33;;;15.70;99.90;;;;;;5034862;28;20455;-60
2021/06/06 10:30:16;;;;;;;2.23;1.20;;;15.70;99.90;;;;;;5024242;28;20449;-62
2021/06/06 10:32:45;;;;;;;0.90;0.90;;;15.70;99.90;;;;;;5030421;28;21137;-59
2021/06/06 10:35:21;;;;;;;1.10;1.00;;;15.70;99.90;;;;;;5034849;28;20435;-59
2021/06/06 10:37:50;;;;;;;1.60;1.50;;;15.80;99.90;;;;;;5034728;28;20508;-60
2021/06/06 10:40:31;;;;;;;1.50;1.40;;;15.80;99.90;;;;;;5033357;28;20446;-59
2021/06/06 10:43:07;;;;;;;1.23;1.13;;;15.80;99.90;;;;;;5032591;28;20430;-60
2021/06/06 10:45:38;;;;;;;2.50;1.20;;;15.80;99.90;;;;;;5016004;28;20549;-60
2021/06/06 10:48:31;;;;;;;1.47;1.37;;;15.80;99.90;;;;;;5036030;28;20438;-60
2021/06/06 10:51:09;;;;;;;2.87;1.30;;;15.80;99.90;;;;;;5037463;28;20456;-60
2021/06/06 10:53:36;;;;;;;1.20;1.10;;;15.90;99.90;;;;;;5035808;28;20460;-60
2021/06/06 10:56:14;;;;;;;1.57;1.40;;;15.90;99.90;;;;;;5019592;28;20436;-63
2021/06/06 10:58:48;;;;;;;2.77;1.50;;;15.90;99.90;;;;;;5018524;28;20521;-61
2021/06/06 11:01:20;;;;;;;1.27;1.17;;;15.80;99.90;;;;;;5037561;28;20437;-58
2021/06/06 11:03:54;;;;;;;1.00;1.00;;;15.80;99.90;;;;;;5034293;28;20429;-59
2021/06/06 11:06:25;;;;;;;1.37;1.27;;;15.80;99.90;;;;;;5031160;28;20453;-59
2021/06/06 11:08:52;;;;;;;0.90;0.90;;;15.80;99.90;;;;;;5035867;28;20508;-59
2021/06/06 11:11:31;;;;;;;2.30;1.00;;;15.80;99.90;;;;;;5017944;28;20437;-60
2021/06/06 11:14:08;;;;;;;1.30;1.20;;;15.80;99.90;;;;;;5034658;28;20429;-60
2021/06/06 11:16:35;;;;;;;1.20;1.20;;;15.80;99.90;;;;;;5035380;28;20441;-60
2021/06/06 11:19:12;;;;;;;1.50;1.40;;;15.90;99.90;;;;;;5037941;28;20909;-59
2021/06/06 11:21:49;;;;;;;2.17;1.50;;;15.90;99.90;;;;;;5011354;28;20811;-61
2021/06/06 11:24:39;;;;;;;2.33;1.47;;;15.90;99.90;;;;;;5029129;28;21013;-60
2021/06/06 11:27:15;;;;;;;1.87;1.70;;;15.90;99.90;;;;;;5037554;28;20527;-60
2021/06/06 11:29:49;;;;;;;2.00;1.83;;;15.90;99.90;;;;;;5036782;28;20852;-62
2021/06/06 11:32:23;;;;;;;2.07;1.87;;;15.90;99.90;;;;;;5031953;28;21128;-60
2021/06/06 11:35:25;;;;;;;5.57;3.87;;;15.90;99.90;;;;;;5036688;28;20507;-59
2021/06/06 11:38:32;;;;;;;8.50;6.17;;;16.00;99.90;;;;;;5033679;28;20434;-60
2021/06/06 11:41:22;;;;;;;4.40;3.57;;;16.10;99.90;;;;;;5032928;28;20954;-60
2021/06/06 11:44:12;;;;;;;1.80;1.70;;;16.10;99.90;;;;;;5033166;28;20867;-60
2021/06/06 11:46:50;;;;;;;7.10;6.40;;;16.20;99.90;;;;;;5043327;28;21042;-60
2021/06/06 11:49:24;;;;;;;3.57;3.27;;;16.10;99.90;;;;;;5025572;28;20450;-61
2021/06/06 11:51:50;;;;;;;2.80;2.20;;;16.10;99.90;;;;;;5032559;28;20434;-61
2021/06/06 11:54:37;;;;;;;1.90;1.70;;;16.10;99.90;;;;;;5035266;28;20604;-61
2021/06/06 11:57:18;;;;;;;3.57;1.40;;;16.10;99.90;;;;;;5018830;28;20437;-60
2021/06/06 12:00:06;;;;;;;2.10;1.90;;;16.10;99.90;;;;;;5018439;28;21002;-61
2021/06/06 12:02:37;;;;;;;1.77;1.67;;;16.00;99.90;;;;;;5019298;28;20445;-60
2021/06/06 12:05:10;;;;;;;2.17;1.97;;;15.90;99.90;;;;;;5034855;28;21077;-59
2021/06/06 12:07:36;;;;;;;1.50;1.40;;;16.00;99.90;;;;;;5036174;28;21175;-60
2021/06/06 12:10:04;;;;;;;1.40;1.30;;;16.00;99.90;;;;;;5040167;28;20452;-60
2021/06/06 12:12:33;;;;;;;2.17;1.60;;;16.00;99.90;;;;;;5040937;28;20176;-60
2021/06/06 12:15:10;;;;;;;1.47;1.40;;;15.90;99.90;;;;;;5042054;28;20425;-58
2021/06/06 12:17:37;;;;;;;1.90;1.70;;;15.90;99.90;;;;;;5037778;28;20909;-60
2021/06/06 12:20:15;;;;;;;1.87;1.77;;;15.90;99.90;;;;;;5037919;28;20445;-59
2021/06/06 12:22:41;;;;;;;1.90;1.80;;;15.90;99.90;;;;;;5021396;28;20438;-61
2021/06/06 12:25:22;;;;;;;2.70;1.73;;;15.90;99.90;;;;;;5033843;28;20429;-59
2021/06/06 12:27:59;;;;;;;2.10;1.87;;;16.00;99.90;;;;;;5037725;28;20425;-60
2021/06/06 12:30:25;;;;;;;1.40;1.30;;;16.00;99.90;;;;;;5020236;28;21029;-60
2021/06/06 12:32:59;;;;;;;1.90;1.77;;;16.00;99.90;;;;;;5035739;28;20484;-60
2021/06/06 12:35:30;;;;;;;1.60;1.47;;;16.10;99.90;;;;;;5036470;28;20898;-59
2021/06/06 12:37:59;;;;;;;3.37;1.60;;;16.20;99.90;;;;;;5018896;28;20442;-59
2021/06/06 12:40:29;;;;;;;2.00;1.77;;;16.20;99.90;;;;;;5031624;28;20468;-59
2021/06/06 12:42:59;;;;;;;2.23;2.03;;;16.30;99.90;;;;;;5021970;28;20430;-59
2021/06/06 12:45:27;;;;;;;3.30;2.90;;;16.30;99.90;;;;;;5033013;28;20432;-62
2021/06/06 12:48:08;;;;;;;3.07;2.80;;;16.40;99.90;;;;;;5032583;28;21022;-59
2021/06/06 12:50:34;;;;;;;3.43;2.17;;;16.40;99.90;;;;;;5036868;28;20572;-60
2021/06/06 12:53:06;;;;;;;2.60;2.40;;;16.40;99.90;;;;;;5037919;28;20967;-56
2021/06/06 12:55:39;;;;;;;3.53;2.50;;;16.40;99.90;;;;;;5033630;28;20434;-57
2021/06/06 12:58:04;;;;;;;1.97;1.77;;;16.40;99.90;;;;;;5029700;28;20434;-60
2021/06/06 13:00:33;;;;;;;3.97;1.70;;;16.40;99.90;;;;;;5024142;28;20454;-59
2021/06/06 13:03:01;;;;;;;2.80;2.30;;;16.40;99.90;;;;;;5020714;28;20532;-60
2021/06/06 13:05:49;;;;;;;1.90;1.80;;;16.30;99.90;;;;;;5033093;28;20461;-61